Unionville, Louisiana
Current Conditions -  °F | °C
As of 9:55 AM on Thursday 27 Nov 2014 (Local Time) from KRSN Reporting Station
Clear Clear  
Wind Chill: 41°   Ceiling: Unl
Heat Index: 46°   Visibility: 10mi
Dew Point: 30°   Wind: 10mph
Humidity: 53%   Direction: 20°NNE
Pressure: 30.57"   Gusts: NA
Location:  32.6988°N, 92.6981°W
Report Text: KRSN 271555Z AUTO 02009KT 10SM CLR 08/M01 A3057 RMK AO2 T00801010
Loading
Personal Weather Stations






























Interactive Weather Map New forecast layout! Learn more

10-Day Weather Forecast

Advertisements
Track Severe Weather on mobile